Colorado Springs, CO (80915)

7:50 PM MDT on October 01, 2014 (GMT -0600)
Carefree Circle S & Windward Circle Village 7 | Change Station
CLOSE
Current Station
Personal Weather Station
Location: Colorado Springs, CO
Elevation: 6509 ft
Nearby Weather Stations

Elev 6509 ft 38.88 °N, 104.74 °W | Updated 40 seconds ago

Overcast
Overcast
46.8 °F
Feels Like 47 °F
N
3.0
Wind Variable Wind from NE
Gusts 3.0 mph

Today
High -- | Low -- °F
--% Chance of Precip.
Yesterday
High -- | Low -- °F
Precip. -- in
6:54 AM 6:41 PM
First Quarter, 53% visible
Pressure 29.81 in
Visibility 10.0 miles
Clouds Few 1000 ft
Scattered Clouds 7500 ft
Mostly Cloudy 11000 ft
Mostly Cloudy 15000 ft
Windchill 47 °F
Dew Point 41 °F
Humidity 81%
Rainfall 0.00 in
Snow Depth 1 in , 0 in , 0 in
UV 0.0 out of 12
Pollen 4.10 out of 12
Ozone Good
PM2.5 Good
Flu Activity Not available.
METAR KCOS 020054Z 03022G26KT 10SM FEW010 SCT075 BKN110 BKN150 13/05 A2993 RMK AO2 PK WND 04027/0046 SLP095 LW CLDS ALG MTN BASES NW T01280050 $

More Conditions Fewer Conditions

Pressure 29.81 in
Visibility 10.0 miles
Clouds Few 1000 ft
Scattered Clouds 7500 ft
Mostly Cloudy 11000 ft
Mostly Cloudy 15000 ft
Windchill 47 °F
Dew Point 41 °F
Humidity 81%
Rainfall 0.00 in
Snow Depth 1 in , 0 in , 0 in
UV 0.0 out of 12
Pollen 4.10 out of 12
Ozone Good
PM2.5 Good
Flu Activity Not available.
METAR KCOS 020054Z 03022G26KT 10SM FEW010 SCT075 BKN110 BKN150 13/05 A2993 RMK AO2 PK WND 04027/0046 SLP095 LW CLDS ALG MTN BASES NW T01280050 $

More Conditions Fewer Conditions

10-Day Weather Forecast

Almanac

Astronomy

Oct. 01, 2014 Rise Set
Actual Time 6:54 AM MDT 6:41 PM MDT
Civil Twilight 6:28 AM MDT 7:08 PM MDT
Nautical Twilight 5:57 AM MDT 7:38 PM MDT
Astronomical Twilight 5:26 AM MDT 8:09 PM MDT
Moon 1:55 PM MDT (10/1) No Moon Set
Length of Visible Light 12h 39m
Length of Day
11h 46m
Tomorrow will be 2m 30s shorter.
First Quarter, 53% of the Moon is Illuminated
Today
First Quarter
Oct 8
Full
Oct 15
Last Quarter
Oct 23
New
Oct 30
First Quarter

Today's Extremes

State Highs State Lows

Community

WunderPhotos

Upload Photos

1,758,118 photos uploaded!

WunderBlogs® & News

Nearby

Air Quality

  Air Quality AQ Index Pollutant
Yesterday Good
OZONE
Yesterday Good
PM2.5
Current Good
OZONE
Current Good
PM2.5
Wednesday Good
PM2.5
Wednesday Good
OZONE
Thursday Good
PM2.5
Thursday Good
OZONE

Snow Depth

Station Depth Elevation
Lily Pond 1 in 11000 ft
University Camp 0 in 10300 ft
Columbine Pass 0 in 9400 ft
Copeland Lake 0 in 8600 ft
Michigan Creek 0 in 10600 ft

Earthquake Activity

City Distance Mag. Time & Date
Trinidad, Colorado 125 miles 2.9 3:55 AM MDT
2014-09-30
Minimum magnitude displayed is 2.5.

Coastal Water Temperatures

Place Temperature
No Stations Reporting

Nearby Weather Stations